createdAt,value
2018-09-09T00:00:51.477Z,19.70
2018-09-09T00:03:20.003Z,19.70
2018-09-09T00:05:48.549Z,19.60
2018-09-09T00:08:17.085Z,19.60
2018-09-09T00:10:45.646Z,19.60
2018-09-09T00:13:14.174Z,19.60
2018-09-09T00:15:42.738Z,19.50
2018-09-09T00:18:11.272Z,19.50
2018-09-09T00:20:39.840Z,19.40
2018-09-09T00:23:08.381Z,19.40
2018-09-09T00:25:37.169Z,19.40
2018-09-09T00:28:06.149Z,19.40
2018-09-09T00:30:34.980Z,19.30
2018-09-09T00:33:03.510Z,19.30
2018-09-09T00:35:32.185Z,19.30
2018-09-09T00:38:00.705Z,19.30
2018-09-09T00:40:29.218Z,19.20
2018-09-09T00:42:57.708Z,19.20
2018-09-09T00:45:26.242Z,19.20
2018-09-09T00:47:54.741Z,19.20
2018-09-09T00:50:28.535Z,19.10
2018-09-09T00:53:02.331Z,19.10
2018-09-09T00:55:31.247Z,19.10
2018-09-09T00:57:59.747Z,19.10
2018-09-09T01:00:33.740Z,19.00
2018-09-09T01:03:02.243Z,18.90
2018-09-09T01:05:30.741Z,19.00
2018-09-09T01:07:59.272Z,18.90
2018-09-09T01:10:27.776Z,18.90
2018-09-09T01:12:56.325Z,18.90
2018-09-09T01:15:24.801Z,18.80
2018-09-09T01:17:53.314Z,18.80
2018-09-09T01:20:22.202Z,18.80
2018-09-09T01:22:50.721Z,18.80
2018-09-09T01:25:19.310Z,18.80
2018-09-09T01:27:47.809Z,18.70
2018-09-09T01:30:16.301Z,18.70
2018-09-09T01:32:44.883Z,18.70
2018-09-09T01:35:13.544Z,18.60
2018-09-09T01:37:42.086Z,18.60
2018-09-09T01:40:10.749Z,18.60
2018-09-09T01:42:39.426Z,18.60
2018-09-09T01:45:07.974Z,18.60
2018-09-09T01:47:36.525Z,18.50
2018-09-09T01:50:05.122Z,18.50
2018-09-09T01:52:33.682Z,18.50
2018-09-09T01:55:02.256Z,18.50
2018-09-09T01:57:30.814Z,18.40
2018-09-09T01:59:59.341Z,18.40
2018-09-09T02:02:27.889Z,18.40
2018-09-09T02:04:56.410Z,18.40
2018-09-09T02:07:25.085Z,18.30
2018-09-09T02:09:53.616Z,18.30
2018-09-09T02:12:22.159Z,18.30
2018-09-09T02:14:50.691Z,18.30
2018-09-09T02:17:20.148Z,18.20
2018-09-09T02:19:48.665Z,18.20
2018-09-09T02:22:17.220Z,18.20
2018-09-09T02:24:45.738Z,18.20
2018-09-09T02:27:14.350Z,18.10
2018-09-09T02:29:42.900Z,18.10
2018-09-09T02:32:11.483Z,18.10
2018-09-09T02:34:40.006Z,18.10
2018-09-09T02:37:08.650Z,18.10
2018-09-09T02:39:37.216Z,18.00
2018-09-09T02:42:05.754Z,18.00
2018-09-09T02:44:34.359Z,18.00
2018-09-09T02:47:03.073Z,17.90
2018-09-09T02:49:31.613Z,17.90
2018-09-09T02:52:00.142Z,17.90
2018-09-09T02:54:28.682Z,17.90
2018-09-09T02:56:57.208Z,17.90
2018-09-09T02:59:25.788Z,17.80
2018-09-09T03:01:54.328Z,17.80
2018-09-09T03:04:22.878Z,17.80
2018-09-09T03:06:51.414Z,17.80
2018-09-09T03:09:19.986Z,17.70
2018-09-09T03:11:48.513Z,17.70
2018-09-09T03:14:17.057Z,17.70
2018-09-09T03:16:45.579Z,17.70
2018-09-09T03:19:14.140Z,17.60
2018-09-09T03:21:42.668Z,17.60
2018-09-09T03:24:11.215Z,17.60
2018-09-09T03:26:39.729Z,17.60
2018-09-09T03:29:08.283Z,17.60
2018-09-09T03:31:36.770Z,17.60
2018-09-09T03:34:05.594Z,17.50
2018-09-09T03:36:34.090Z,17.50
2018-09-09T03:39:02.677Z,17.50
2018-09-09T03:41:31.150Z,17.50
2018-09-09T03:43:59.650Z,17.40
2018-09-09T03:46:28.144Z,17.40
2018-09-09T03:48:56.654Z,17.40
2018-09-09T03:51:25.129Z,17.40
2018-09-09T03:53:53.627Z,17.30
2018-09-09T03:56:22.098Z,17.30
2018-09-09T03:58:50.606Z,17.30
2018-09-09T04:01:19.102Z,17.30
2018-09-09T04:03:47.741Z,17.30
2018-09-09T04:06:16.306Z,17.20
2018-09-09T04:08:45.004Z,17.20
2018-09-09T04:11:13.500Z,17.20
2018-09-09T04:13:43.136Z,17.10
2018-09-09T04:16:12.803Z,17.20
2018-09-09T04:18:42.549Z,17.10
2018-09-09T04:21:11.041Z,17.10
2018-09-09T04:23:39.790Z,17.10
2018-09-09T04:26:08.293Z,17.10
2018-09-09T04:28:36.793Z,17.10
2018-09-09T04:31:05.334Z,17.00
2018-09-09T04:33:33.836Z,17.00
2018-09-09T04:36:02.389Z,17.00
2018-09-09T04:38:30.880Z,17.00
2018-09-09T04:40:59.401Z,16.90
2018-09-09T04:43:27.866Z,16.90
2018-09-09T04:45:56.375Z,16.90
2018-09-09T04:48:24.866Z,16.90
2018-09-09T04:50:53.381Z,16.90
2018-09-09T04:53:21.894Z,16.80
2018-09-09T04:55:50.414Z,16.80
2018-09-09T04:58:18.891Z,16.80
2018-09-09T05:00:47.410Z,16.80
2018-09-09T05:03:15.986Z,16.70
2018-09-09T05:05:44.506Z,16.70
2018-09-09T05:08:12.987Z,16.70
2018-09-09T05:10:41.513Z,16.70
2018-09-09T05:13:10.016Z,16.70
2018-09-09T05:15:38.526Z,16.60
2018-09-09T05:18:07.021Z,16.60
2018-09-09T05:20:35.553Z,16.60
2018-09-09T05:23:04.085Z,16.60
2018-09-09T05:25:32.602Z,16.60
2018-09-09T05:28:01.087Z,16.60
2018-09-09T05:30:29.610Z,16.50
2018-09-09T05:32:58.170Z,16.50
2018-09-09T05:35:26.718Z,16.50
2018-09-09T05:37:55.239Z,16.50
2018-09-09T05:40:23.789Z,16.50
2018-09-09T05:42:52.297Z,16.50
2018-09-09T05:45:20.835Z,16.40
2018-09-09T05:47:49.365Z,16.40
2018-09-09T05:50:18.253Z,16.40
2018-09-09T05:52:46.810Z,16.40
2018-09-09T05:55:15.443Z,16.40
2018-09-09T05:57:44.003Z,16.40
2018-09-09T06:00:12.714Z,16.40
2018-09-09T06:02:41.306Z,16.40
2018-09-09T06:05:09.866Z,16.40
2018-09-09T06:07:38.457Z,16.40
2018-09-09T06:10:07.055Z,16.40
2018-09-09T06:12:35.586Z,16.40
2018-09-09T06:15:04.181Z,16.40
2018-09-09T06:17:32.734Z,16.40
2018-09-09T06:20:01.258Z,16.30
2018-09-09T06:22:29.807Z,16.30
2018-09-09T06:24:58.570Z,16.40
2018-09-09T06:27:27.123Z,16.40
2018-09-09T06:29:55.691Z,16.30
2018-09-09T06:32:24.365Z,16.30
2018-09-09T06:34:52.986Z,16.30
2018-09-09T06:37:21.506Z,16.30
2018-09-09T06:39:49.981Z,16.30
2018-09-09T06:42:18.493Z,16.30
2018-09-09T06:44:46.992Z,16.30
2018-09-09T06:47:15.506Z,16.30
2018-09-09T06:49:43.992Z,16.30
2018-09-09T06:52:12.491Z,16.30
2018-09-09T06:54:40.982Z,16.30
2018-09-09T06:57:09.490Z,16.40
2018-09-09T06:59:37.984Z,16.30
2018-09-09T07:02:06.672Z,16.40
2018-09-09T07:04:35.162Z,16.30
2018-09-09T07:07:03.693Z,16.40
2018-09-09T07:09:32.185Z,16.40
2018-09-09T07:12:00.989Z,16.40
2018-09-09T07:14:29.446Z,16.40
2018-09-09T07:16:57.974Z,16.40
2018-09-09T07:19:26.449Z,16.40
2018-09-09T07:21:54.960Z,16.40
2018-09-09T07:24:23.448Z,16.40
2018-09-09T07:26:51.959Z,16.40
2018-09-09T07:29:20.454Z,16.40
2018-09-09T07:31:49.030Z,16.40
2018-09-09T07:34:17.974Z,16.40
2018-09-09T07:36:46.473Z,16.40
2018-09-09T07:39:15.162Z,16.40
2018-09-09T07:41:43.708Z,16.40
2018-09-09T07:44:12.346Z,16.40
2018-09-09T07:46:40.868Z,16.40
2018-09-09T07:49:09.597Z,16.40
2018-09-09T07:51:38.124Z,16.40
2018-09-09T07:54:06.767Z,16.40
2018-09-09T07:56:35.559Z,16.40
2018-09-09T07:59:04.220Z,16.40
2018-09-09T08:01:33.331Z,16.40
2018-09-09T08:04:01.873Z,16.40
2018-09-09T08:06:30.415Z,16.40
2018-09-09T08:08:58.963Z,16.40
2018-09-09T08:11:44.093Z,16.40
2018-09-09T08:14:12.663Z,16.40
2018-09-09T08:16:41.188Z,16.40
2018-09-09T08:19:09.747Z,16.40
2018-09-09T08:21:38.274Z,16.40
2018-09-09T08:24:06.831Z,16.50
2018-09-09T08:26:35.378Z,16.50
2018-09-09T08:29:04.129Z,16.60
2018-09-09T08:31:32.683Z,16.50
2018-09-09T08:34:01.228Z,16.60
2018-09-09T08:36:29.766Z,16.60
2018-09-09T08:38:58.329Z,16.60
2018-09-09T08:41:27.003Z,16.60
2018-09-09T08:43:55.590Z,16.70
2018-09-09T08:46:24.284Z,16.70
2018-09-09T08:48:52.904Z,16.70
2018-09-09T08:51:21.453Z,16.70
2018-09-09T08:53:49.999Z,16.70
2018-09-09T08:56:18.531Z,16.80
2018-09-09T08:58:47.098Z,16.90
2018-09-09T09:01:15.624Z,17.00
2018-09-09T09:03:44.186Z,17.00
2018-09-09T09:06:12.709Z,17.10
2018-09-09T09:08:41.495Z,17.10
2018-09-09T09:11:10.054Z,17.10
2018-09-09T09:13:38.662Z,17.10
2018-09-09T09:16:07.225Z,17.10
2018-09-09T09:18:35.836Z,17.10
2018-09-09T09:21:04.356Z,17.00
2018-09-09T09:23:32.901Z,17.00
2018-09-09T09:26:01.389Z,17.00
2018-09-09T09:28:29.894Z,17.10
2018-09-09T09:30:58.381Z,17.10
2018-09-09T09:33:26.924Z,17.10
2018-09-09T09:35:55.702Z,17.20
2018-09-09T09:38:24.280Z,17.20
2018-09-09T09:40:53.285Z,17.20
2018-09-09T09:43:21.812Z,17.20
2018-09-09T09:45:50.477Z,17.30
2018-09-09T09:48:18.982Z,17.30
2018-09-09T09:50:47.544Z,17.30
2018-09-09T09:53:16.089Z,17.40
2018-09-09T09:55:44.583Z,17.40
2018-09-09T09:58:13.066Z,17.40
2018-09-09T10:00:47.023Z,17.50
2018-09-09T10:03:15.536Z,17.50
2018-09-09T10:05:44.038Z,17.60
2018-09-09T10:08:12.516Z,17.60
2018-09-09T10:10:41.028Z,17.70
2018-09-09T10:13:09.515Z,17.70
2018-09-09T10:15:38.024Z,17.80
2018-09-09T10:18:06.531Z,17.90
2018-09-09T10:20:35.029Z,18.10
2018-09-09T10:23:03.524Z,18.10
2018-09-09T10:25:32.070Z,18.20
2018-09-09T10:28:00.781Z,18.30
2018-09-09T10:30:29.492Z,18.40
2018-09-09T10:32:58.002Z,18.50
2018-09-09T10:35:26.867Z,18.60
2018-09-09T10:37:55.362Z,18.70
2018-09-09T10:40:24.231Z,18.70
2018-09-09T10:42:52.714Z,18.90
2018-09-09T10:45:21.251Z,19.00
2018-09-09T10:47:49.742Z,19.10
2018-09-09T10:50:18.270Z,19.20
2018-09-09T10:52:46.749Z,19.40
2018-09-09T10:55:15.323Z,19.50
2018-09-09T10:57:43.811Z,19.70
2018-09-09T11:00:12.348Z,19.80
2018-09-09T11:02:40.838Z,20.00
2018-09-09T11:05:09.380Z,20.10
2018-09-09T11:07:37.950Z,20.20
2018-09-09T11:10:06.505Z,20.30
2018-09-09T11:12:35.362Z,20.40
2018-09-09T11:15:03.943Z,20.70
2018-09-09T11:17:32.442Z,20.70
2018-09-09T11:20:00.949Z,20.50
2018-09-09T11:22:29.948Z,20.40
2018-09-09T11:24:58.442Z,20.20
2018-09-09T11:27:27.330Z,19.90
2018-09-09T11:29:55.868Z,19.70
2018-09-09T11:32:24.376Z,19.60
2018-09-09T11:34:52.889Z,19.50
2018-09-09T11:37:21.459Z,19.50
2018-09-09T11:39:49.989Z,19.50
2018-09-09T11:42:18.481Z,19.70
2018-09-09T11:44:47.017Z,19.80
2018-09-09T11:47:15.514Z,19.90
2018-09-09T11:49:44.050Z,20.00
2018-09-09T11:52:12.589Z,20.00
2018-09-09T11:54:41.094Z,20.10
2018-09-09T11:57:09.672Z,20.20
2018-09-09T11:59:38.203Z,20.30
2018-09-09T12:02:06.833Z,20.30
2018-09-09T12:04:35.266Z,20.20
2018-09-09T12:07:03.791Z,20.20
2018-09-09T12:09:32.278Z,20.30
2018-09-09T12:12:00.775Z,20.40
2018-09-09T12:14:29.248Z,20.40
2018-09-09T12:16:57.781Z,20.40
2018-09-09T12:19:26.277Z,20.30
2018-09-09T12:21:54.772Z,20.20
2018-09-09T12:24:23.317Z,20.20
2018-09-09T12:26:51.850Z,20.20
2018-09-09T12:29:20.650Z,20.20
2018-09-09T12:31:49.187Z,20.30
2018-09-09T12:34:17.681Z,20.20
2018-09-09T12:36:46.178Z,20.20
2018-09-09T12:39:14.661Z,20.20
2018-09-09T12:41:43.174Z,20.20
2018-09-09T12:44:17.126Z,20.20
2018-09-09T12:46:50.826Z,20.20
2018-09-09T12:49:19.334Z,20.20
2018-09-09T12:51:47.866Z,20.20
2018-09-09T12:54:16.360Z,20.10
2018-09-09T12:56:44.959Z,20.10
2018-09-09T12:59:13.446Z,20.10
2018-09-09T13:01:41.982Z,20.10
2018-09-09T13:04:10.475Z,20.10
2018-09-09T13:06:38.974Z,20.10
2018-09-09T13:09:08.804Z,20.20
2018-09-09T13:11:37.346Z,20.20
2018-09-09T13:14:05.950Z,20.30
2018-09-09T13:16:34.500Z,20.30
2018-09-09T13:19:02.987Z,20.30
2018-09-09T13:21:31.509Z,20.40
2018-09-09T13:23:59.994Z,20.30
2018-09-09T13:26:28.601Z,20.30
2018-09-09T13:28:57.096Z,20.30
2018-09-09T13:31:25.653Z,20.30
2018-09-09T13:33:54.174Z,20.30
2018-09-09T13:36:22.684Z,20.30
2018-09-09T13:38:51.301Z,20.40
2018-09-09T13:41:19.869Z,20.40
2018-09-09T13:43:48.385Z,20.40
2018-09-09T13:46:16.933Z,20.40
2018-09-09T13:48:45.473Z,20.50
2018-09-09T13:51:13.996Z,20.50
2018-09-09T13:53:42.529Z,20.50
2018-09-09T13:56:11.062Z,20.50
2018-09-09T13:58:39.550Z,20.50
2018-09-09T14:01:08.038Z,20.50
2018-09-09T14:03:36.578Z,20.40
2018-09-09T14:06:05.078Z,20.40
2018-09-09T14:08:33.599Z,20.40
2018-09-09T14:11:02.090Z,20.40
2018-09-09T14:13:30.682Z,20.40
2018-09-09T14:15:59.213Z,20.40
2018-09-09T14:18:27.725Z,20.40
2018-09-09T14:20:56.203Z,20.40
2018-09-09T14:23:24.698Z,20.40
2018-09-09T14:25:53.189Z,20.40
2018-09-09T14:28:21.730Z,20.40
2018-09-09T14:30:50.343Z,20.40
2018-09-09T14:33:18.947Z,20.40
2018-09-09T14:35:47.477Z,20.40
2018-09-09T14:38:16.026Z,20.40
2018-09-09T14:40:44.562Z,20.40
2018-09-09T14:43:13.172Z,20.40
2018-09-09T14:45:41.707Z,20.40
2018-09-09T14:48:10.276Z,20.40
2018-09-09T14:50:38.805Z,20.40
2018-09-09T14:53:07.460Z,20.40
2018-09-09T14:55:35.926Z,20.40
2018-09-09T14:58:04.499Z,20.40
2018-09-09T15:00:33.064Z,20.40
2018-09-09T15:03:01.641Z,20.40
2018-09-09T15:05:30.212Z,20.40
2018-09-09T15:07:58.782Z,20.40
2018-09-09T15:10:27.306Z,20.40
2018-09-09T15:12:55.843Z,20.40
2018-09-09T15:15:24.385Z,20.40
2018-09-09T15:17:52.943Z,20.40
2018-09-09T15:20:21.507Z,20.40
2018-09-09T15:22:50.061Z,20.40
2018-09-09T15:25:18.585Z,20.40
2018-09-09T15:27:47.162Z,20.40
2018-09-09T15:30:15.691Z,20.40
2018-09-09T15:32:44.266Z,20.40
2018-09-09T15:35:12.801Z,20.40
2018-09-09T15:37:41.353Z,20.40
2018-09-09T15:40:09.896Z,20.40
2018-09-09T15:42:38.441Z,20.40
2018-09-09T15:45:07.029Z,20.40
2018-09-09T15:47:35.600Z,20.40
2018-09-09T15:50:04.219Z,20.40
2018-09-09T15:52:32.761Z,20.30
2018-09-09T15:55:01.335Z,20.40
2018-09-09T15:57:29.858Z,20.40
2018-09-09T15:59:58.505Z,20.30
2018-09-09T16:02:27.040Z,20.30
2018-09-09T16:04:55.611Z,20.30
2018-09-09T16:07:24.220Z,20.30
2018-09-09T16:09:52.751Z,20.30
2018-09-09T16:12:21.287Z,20.30
2018-09-09T16:14:49.846Z,20.30
2018-09-09T16:17:18.368Z,20.20
2018-09-09T16:19:46.946Z,20.20
2018-09-09T16:22:15.485Z,20.20
2018-09-09T16:24:44.032Z,20.20
2018-09-09T16:27:12.588Z,20.20
2018-09-09T16:29:41.269Z,20.20
2018-09-09T16:32:09.866Z,20.20
2018-09-09T16:34:38.433Z,20.20
2018-09-09T16:37:06.997Z,20.20
2018-09-09T16:39:35.615Z,20.20
2018-09-09T16:42:04.151Z,20.20
2018-09-09T16:44:32.764Z,20.20
2018-09-09T16:47:01.325Z,20.10
2018-09-09T16:49:29.884Z,20.10
2018-09-09T16:51:58.433Z,20.10
2018-09-09T16:54:26.979Z,20.10
2018-09-09T16:56:55.505Z,20.10
2018-09-09T16:59:24.068Z,20.10
2018-09-09T17:01:52.642Z,20.00
2018-09-09T17:04:21.218Z,20.00
2018-09-09T17:06:49.743Z,20.00
2018-09-09T17:09:18.269Z,20.00
2018-09-09T17:11:46.814Z,20.00
2018-09-09T17:14:15.436Z,20.00
2018-09-09T17:16:43.943Z,19.90
2018-09-09T17:19:12.505Z,19.90
2018-09-09T17:21:41.036Z,19.90
2018-09-09T17:24:09.598Z,19.90
2018-09-09T17:26:38.128Z,19.90
2018-09-09T17:29:06.690Z,19.90
2018-09-09T17:31:35.216Z,19.90
2018-09-09T17:34:04.148Z,19.80
2018-09-09T17:36:32.690Z,19.80
2018-09-09T17:39:01.179Z,19.80
2018-09-09T17:41:29.694Z,19.70
2018-09-09T17:43:58.206Z,19.70
2018-09-09T17:46:26.709Z,19.70
2018-09-09T17:48:55.200Z,19.70
2018-09-09T17:51:23.712Z,19.70
2018-09-09T17:53:52.197Z,19.70
2018-09-09T17:56:20.803Z,19.70
2018-09-09T17:58:49.317Z,19.60
2018-09-09T18:01:17.858Z,19.70
2018-09-09T18:03:46.358Z,19.60
2018-09-09T18:06:14.877Z,19.60
2018-09-09T18:08:43.366Z,19.60
2018-09-09T18:11:11.934Z,19.60
2018-09-09T18:13:40.398Z,19.60
2018-09-09T18:16:09.773Z,19.50
2018-09-09T18:18:38.271Z,19.50
2018-09-09T18:21:06.831Z,19.50
2018-09-09T18:23:35.417Z,19.50
2018-09-09T18:26:03.923Z,19.50
2018-09-09T18:28:32.401Z,19.50
2018-09-09T18:31:00.913Z,19.40
2018-09-09T18:33:29.475Z,19.40
2018-09-09T18:35:58.058Z,19.40
2018-09-09T18:38:26.594Z,19.40
2018-09-09T18:40:55.123Z,19.30
2018-09-09T18:43:23.732Z,19.40
2018-09-09T18:45:52.267Z,19.30
2018-09-09T18:48:20.894Z,19.30
2018-09-09T18:50:49.506Z,19.30
2018-09-09T18:53:18.008Z,19.30
2018-09-09T18:55:46.516Z,19.30
2018-09-09T18:58:15.714Z,19.30
2018-09-09T19:00:44.248Z,19.20
2018-09-09T19:03:13.293Z,19.20
2018-09-09T19:05:41.865Z,19.20
2018-09-09T19:08:10.376Z,19.20
2018-09-09T19:10:38.941Z,19.10
2018-09-09T19:13:07.707Z,19.10
2018-09-09T19:15:36.318Z,19.10
2018-09-09T19:18:04.856Z,19.10
2018-09-09T19:20:33.443Z,19.10
2018-09-09T19:23:02.369Z,19.10
2018-09-09T19:25:30.908Z,19.00
2018-09-09T19:27:59.414Z,19.00
2018-09-09T19:30:27.938Z,19.00
2018-09-09T19:32:56.440Z,19.00
2018-09-09T19:35:24.968Z,18.90
2018-09-09T19:37:53.501Z,18.90
2018-09-09T19:40:21.981Z,18.90
2018-09-09T19:42:50.500Z,18.90
2018-09-09T19:45:19.055Z,18.90
2018-09-09T19:47:47.581Z,18.90
2018-09-09T19:50:16.075Z,18.80
2018-09-09T19:52:44.901Z,18.80
2018-09-09T19:55:13.423Z,18.80
2018-09-09T19:57:42.049Z,18.80
2018-09-09T20:00:10.651Z,18.80
2018-09-09T20:02:39.327Z,18.70
2018-09-09T20:05:07.918Z,18.70
2018-09-09T20:07:36.494Z,18.70
2018-09-09T20:10:05.131Z,18.70
2018-09-09T20:12:33.938Z,18.60
2018-09-09T20:15:02.480Z,18.60
2018-09-09T20:17:31.030Z,18.60
2018-09-09T20:19:59.562Z,18.60
2018-09-09T20:22:28.108Z,18.60
2018-09-09T20:24:56.761Z,18.60
2018-09-09T20:27:25.448Z,18.50
2018-09-09T20:29:54.080Z,18.50
2018-09-09T20:32:22.680Z,18.50
2018-09-09T20:34:51.213Z,18.50
2018-09-09T20:37:19.749Z,18.50
2018-09-09T20:39:48.283Z,18.40
2018-09-09T20:42:16.828Z,18.40
2018-09-09T20:44:45.340Z,18.40
2018-09-09T20:47:14.059Z,18.40
2018-09-09T20:49:42.727Z,18.30
2018-09-09T20:52:11.497Z,18.30
2018-09-09T20:54:40.012Z,18.30
2018-09-09T20:57:08.570Z,18.30
2018-09-09T20:59:37.101Z,18.30
2018-09-09T21:02:05.694Z,18.30
2018-09-09T21:04:34.274Z,18.20
2018-09-09T21:07:02.812Z,18.20
2018-09-09T21:09:31.510Z,18.20
2018-09-09T21:12:00.031Z,18.20
2018-09-09T21:14:28.593Z,18.20
2018-09-09T21:16:57.161Z,18.10
2018-09-09T21:19:25.683Z,18.10
2018-09-09T21:21:54.257Z,18.10
2018-09-09T21:24:22.836Z,18.10
2018-09-09T21:26:51.360Z,18.10
2018-09-09T21:29:20.000Z,18.00
2018-09-09T21:31:48.568Z,18.00
2018-09-09T21:34:17.105Z,18.00
2018-09-09T21:36:45.635Z,18.00
2018-09-09T21:39:14.206Z,18.00
2018-09-09T21:41:42.794Z,17.90
2018-09-09T21:44:11.352Z,17.90
2018-09-09T21:46:39.880Z,17.90
2018-09-09T21:49:08.429Z,17.90
2018-09-09T21:51:36.954Z,17.90
2018-09-09T21:54:05.901Z,17.80
2018-09-09T21:56:34.421Z,17.80
2018-09-09T21:59:02.971Z,17.80
2018-09-09T22:01:36.765Z,17.80
2018-09-09T22:04:05.337Z,17.80
2018-09-09T22:06:33.860Z,17.80
2018-09-09T22:09:02.501Z,17.70
2018-09-09T22:11:31.029Z,17.70
2018-09-09T22:13:59.598Z,17.70
2018-09-09T22:16:28.185Z,17.70
2018-09-09T22:18:56.722Z,17.70
2018-09-09T22:21:25.285Z,17.60
2018-09-09T22:23:53.874Z,17.60
2018-09-09T22:26:22.390Z,17.60
2018-09-09T22:28:50.953Z,17.60
2018-09-09T22:31:19.475Z,17.60
2018-09-09T22:33:48.001Z,17.60
2018-09-09T22:36:16.469Z,17.50
2018-09-09T22:38:44.975Z,17.50
2018-09-09T22:41:13.447Z,17.50
2018-09-09T22:43:41.963Z,17.50
2018-09-09T22:46:10.467Z,17.50
2018-09-09T22:48:38.986Z,17.50
2018-09-09T22:51:07.473Z,17.50
2018-09-09T22:53:35.967Z,17.50
2018-09-09T22:56:04.487Z,17.50
2018-09-09T22:58:33.046Z,17.40
2018-09-09T23:01:01.575Z,17.40
2018-09-09T23:03:30.094Z,17.40
2018-09-09T23:05:58.581Z,17.40
2018-09-09T23:08:27.070Z,17.40
2018-09-09T23:10:55.562Z,17.40
2018-09-09T23:13:24.078Z,17.40
2018-09-09T23:15:52.656Z,17.40
2018-09-09T23:18:21.209Z,17.40
2018-09-09T23:20:49.697Z,17.40
2018-09-09T23:23:18.194Z,17.30
2018-09-09T23:25:46.679Z,17.30
2018-09-09T23:28:15.156Z,17.30
2018-09-09T23:30:43.693Z,17.30
2018-09-09T23:33:12.237Z,17.30
2018-09-09T23:35:40.785Z,17.30
2018-09-09T23:38:09.348Z,17.30
2018-09-09T23:40:37.911Z,17.30
2018-09-09T23:43:06.768Z,17.20
2018-09-09T23:45:35.305Z,17.20
2018-09-09T23:48:03.858Z,17.20
2018-09-09T23:50:32.422Z,17.20
2018-09-09T23:53:00.942Z,17.20
2018-09-09T23:55:29.499Z,17.20
2018-09-09T23:57:58.030Z,17.20
